sensor_id;sensor_type;location;lat;lon;timestamp;P1;durP1;ratioP1;P2;durP2;ratioP2
44822;SDS011;51097;51.984;5.650;2023-12-28T00:00:34;5.28;;;2.83;;
44822;SDS011;51097;51.984;5.650;2023-12-28T00:03:00;5.68;;;3.00;;
44822;SDS011;51097;51.984;5.650;2023-12-28T00:05:25;4.20;;;2.40;;
44822;SDS011;51097;51.984;5.650;2023-12-28T00:07:51;4.25;;;2.78;;
44822;SDS011;51097;51.984;5.650;2023-12-28T00:10:23;3.15;;;2.78;;
44822;SDS011;51097;51.984;5.650;2023-12-28T00:12:49;4.55;;;2.80;;
44822;SDS011;51097;51.984;5.650;2023-12-28T00:15:15;3.97;;;3.05;;
44822;SDS011;51097;51.984;5.650;2023-12-28T00:17:41;4.03;;;2.65;;
44822;SDS011;51097;51.984;5.650;2023-12-28T00:20:09;3.53;;;2.55;;
44822;SDS011;51097;51.984;5.650;2023-12-28T00:22:35;3.65;;;2.70;;
44822;SDS011;51097;51.984;5.650;2023-12-28T00:25:04;4.57;;;3.63;;
44822;SDS011;51097;51.984;5.650;2023-12-28T00:27:30;4.13;;;3.20;;
44822;SDS011;51097;51.984;5.650;2023-12-28T00:29:55;3.65;;;3.10;;
44822;SDS011;51097;51.984;5.650;2023-12-28T00:32:21;6.25;;;3.55;;
44822;SDS011;51097;51.984;5.650;2023-12-28T00:34:46;3.58;;;3.10;;
44822;SDS011;51097;51.984;5.650;2023-12-28T00:37:12;5.05;;;3.00;;
44822;SDS011;51097;51.984;5.650;2023-12-28T00:39:38;6.50;;;3.30;;
44822;SDS011;51097;51.984;5.650;2023-12-28T00:42:04;3.60;;;3.05;;
44822;SDS011;51097;51.984;5.650;2023-12-28T00:44:30;3.22;;;2.70;;
44822;SDS011;51097;51.984;5.650;2023-12-28T00:46:55;5.30;;;3.08;;
44822;SDS011;51097;51.984;5.650;2023-12-28T00:49:21;3.15;;;2.58;;
44822;SDS011;51097;51.984;5.650;2023-12-28T00:51:46;4.55;;;2.85;;
44822;SDS011;51097;51.984;5.650;2023-12-28T00:54:12;5.65;;;3.95;;
44822;SDS011;51097;51.984;5.650;2023-12-28T00:56:37;4.47;;;3.22;;
44822;SDS011;51097;51.984;5.650;2023-12-28T00:59:03;3.65;;;3.13;;
44822;SDS011;51097;51.984;5.650;2023-12-28T01:01:28;3.95;;;2.92;;
44822;SDS011;51097;51.984;5.650;2023-12-28T01:03:57;4.20;;;2.92;;
44822;SDS011;51097;51.984;5.650;2023-12-28T01:06:22;4.30;;;3.10;;
44822;SDS011;51097;51.984;5.650;2023-12-28T01:08:52;4.72;;;2.90;;
44822;SDS011;51097;51.984;5.650;2023-12-28T01:11:18;5.88;;;2.78;;
44822;SDS011;51097;51.984;5.650;2023-12-28T01:13:44;4.22;;;3.28;;
44822;SDS011;51097;51.984;5.650;2023-12-28T01:16:09;4.22;;;2.92;;
44822;SDS011;51097;51.984;5.650;2023-12-28T01:18:37;4.45;;;2.85;;
44822;SDS011;51097;51.984;5.650;2023-12-28T01:21:03;5.10;;;2.60;;
44822;SDS011;51097;51.984;5.650;2023-12-28T01:23:29;4.18;;;3.05;;
44822;SDS011;51097;51.984;5.650;2023-12-28T01:25:55;5.82;;;3.67;;
44822;SDS011;51097;51.984;5.650;2023-12-28T01:28:21;5.95;;;3.75;;
44822;SDS011;51097;51.984;5.650;2023-12-28T01:30:47;5.63;;;3.22;;
44822;SDS011;51097;51.984;5.650;2023-12-28T01:33:12;5.03;;;3.00;;
44822;SDS011;51097;51.984;5.650;2023-12-28T01:35:38;4.15;;;3.17;;
44822;SDS011;51097;51.984;5.650;2023-12-28T01:38:03;4.68;;;3.35;;
44822;SDS011;51097;51.984;5.650;2023-12-28T01:40:29;4.53;;;2.83;;
44822;SDS011;51097;51.984;5.650;2023-12-28T01:42:55;3.35;;;3.03;;
44822;SDS011;51097;51.984;5.650;2023-12-28T01:45:20;3.60;;;3.05;;
44822;SDS011;51097;51.984;5.650;2023-12-28T01:47:46;5.85;;;3.67;;
44822;SDS011;51097;51.984;5.650;2023-12-28T01:50:13;5.20;;;3.17;;
44822;SDS011;51097;51.984;5.650;2023-12-28T01:52:39;4.70;;;3.53;;
44822;SDS011;51097;51.984;5.650;2023-12-28T01:55:05;4.82;;;3.30;;
44822;SDS011;51097;51.984;5.650;2023-12-28T01:57:32;4.10;;;3.38;;
44822;SDS011;51097;51.984;5.650;2023-12-28T01:59:58;4.82;;;3.22;;
44822;SDS011;51097;51.984;5.650;2023-12-28T02:02:26;4.05;;;3.30;;
44822;SDS011;51097;51.984;5.650;2023-12-28T02:04:52;7.40;;;3.78;;
44822;SDS011;51097;51.984;5.650;2023-12-28T02:07:20;3.65;;;2.85;;
44822;SDS011;51097;51.984;5.650;2023-12-28T02:09:46;7.10;;;3.55;;
44822;SDS011;51097;51.984;5.650;2023-12-28T02:12:11;4.88;;;3.33;;
44822;SDS011;51097;51.984;5.650;2023-12-28T02:14:37;6.35;;;3.70;;
44822;SDS011;51097;51.984;5.650;2023-12-28T02:20:17;5.35;;;3.30;;
44822;SDS011;51097;51.984;5.650;2023-12-28T02:22:45;5.93;;;3.30;;
44822;SDS011;51097;51.984;5.650;2023-12-28T02:25:11;5.55;;;3.25;;
44822;SDS011;51097;51.984;5.650;2023-12-28T02:27:44;4.95;;;3.22;;
44822;SDS011;51097;51.984;5.650;2023-12-28T02:30:17;9.30;;;3.72;;
44822;SDS011;51097;51.984;5.650;2023-12-28T02:38:24;6.97;;;3.17;;
44822;SDS011;51097;51.984;5.650;2023-12-28T02:40:52;7.68;;;3.65;;
44822;SDS011;51097;51.984;5.650;2023-12-28T02:43:18;7.10;;;4.15;;
44822;SDS011;51097;51.984;5.650;2023-12-28T02:45:44;8.05;;;3.47;;
44822;SDS011;51097;51.984;5.650;2023-12-28T02:48:10;5.55;;;3.03;;
44822;SDS011;51097;51.984;5.650;2023-12-28T02:50:36;5.78;;;3.65;;
44822;SDS011;51097;51.984;5.650;2023-12-28T02:53:01;3.67;;;3.20;;
44822;SDS011;51097;51.984;5.650;2023-12-28T02:55:28;5.95;;;3.30;;
44822;SDS011;51097;51.984;5.650;2023-12-28T02:57:55;4.03;;;2.67;;
44822;SDS011;51097;51.984;5.650;2023-12-28T03:00:24;7.40;;;3.67;;
44822;SDS011;51097;51.984;5.650;2023-12-28T03:02:50;5.03;;;3.30;;
44822;SDS011;51097;51.984;5.650;2023-12-28T03:05:15;3.78;;;2.78;;
44822;SDS011;51097;51.984;5.650;2023-12-28T03:07:41;6.00;;;3.63;;
44822;SDS011;51097;51.984;5.650;2023-12-28T03:10:07;5.40;;;3.25;;
44822;SDS011;51097;51.984;5.650;2023-12-28T03:12:33;3.63;;;2.53;;
44822;SDS011;51097;51.984;5.650;2023-12-28T03:14:59;4.57;;;3.10;;
44822;SDS011;51097;51.984;5.650;2023-12-28T03:17:25;9.02;;;2.92;;
44822;SDS011;51097;51.984;5.650;2023-12-28T03:19:51;6.78;;;2.70;;
44822;SDS011;51097;51.984;5.650;2023-12-28T03:22:16;7.03;;;2.90;;
44822;SDS011;51097;51.984;5.650;2023-12-28T03:24:42;6.35;;;3.35;;
44822;SDS011;51097;51.984;5.650;2023-12-28T03:27:08;7.35;;;2.72;;
44822;SDS011;51097;51.984;5.650;2023-12-28T03:29:34;5.65;;;2.88;;
44822;SDS011;51097;51.984;5.650;2023-12-28T03:31:59;5.68;;;2.65;;
44822;SDS011;51097;51.984;5.650;2023-12-28T03:34:26;4.45;;;2.75;;
44822;SDS011;51097;51.984;5.650;2023-12-28T03:36:54;7.53;;;3.20;;
44822;SDS011;51097;51.984;5.650;2023-12-28T03:39:19;5.13;;;2.25;;
44822;SDS011;51097;51.984;5.650;2023-12-28T03:41:45;6.60;;;2.92;;
44822;SDS011;51097;51.984;5.650;2023-12-28T03:44:11;9.55;;;2.20;;
44822;SDS011;51097;51.984;5.650;2023-12-28T03:46:37;3.00;;;2.13;;
44822;SDS011;51097;51.984;5.650;2023-12-28T03:49:03;9.77;;;2.80;;
44822;SDS011;51097;51.984;5.650;2023-12-28T03:51:28;5.70;;;2.30;;
44822;SDS011;51097;51.984;5.650;2023-12-28T03:53:54;5.40;;;2.90;;
44822;SDS011;51097;51.984;5.650;2023-12-28T03:56:23;9.68;;;2.45;;
44822;SDS011;51097;51.984;5.650;2023-12-28T03:58:50;3.38;;;2.30;;
44822;SDS011;51097;51.984;5.650;2023-12-28T04:01:20;5.82;;;2.22;;
44822;SDS011;51097;51.984;5.650;2023-12-28T04:06:15;4.22;;;2.13;;
44822;SDS011;51097;51.984;5.650;2023-12-28T04:08:44;5.82;;;2.45;;
44822;SDS011;51097;51.984;5.650;2023-12-28T04:11:09;4.10;;;2.30;;
44822;SDS011;51097;51.984;5.650;2023-12-28T04:13:35;6.03;;;2.63;;
44822;SDS011;51097;51.984;5.650;2023-12-28T04:16:01;6.68;;;2.30;;
44822;SDS011;51097;51.984;5.650;2023-12-28T04:18:28;6.07;;;2.00;;
44822;SDS011;51097;51.984;5.650;2023-12-28T04:20:54;6.70;;;2.40;;
44822;SDS011;51097;51.984;5.650;2023-12-28T04:23:20;6.80;;;2.42;;
44822;SDS011;51097;51.984;5.650;2023-12-28T04:25:46;5.30;;;3.28;;
44822;SDS011;51097;51.984;5.650;2023-12-28T04:28:12;5.15;;;2.85;;
44822;SDS011;51097;51.984;5.650;2023-12-28T04:30:37;6.75;;;2.42;;
44822;SDS011;51097;51.984;5.650;2023-12-28T04:33:03;8.27;;;2.33;;
44822;SDS011;51097;51.984;5.650;2023-12-28T04:35:29;11.60;;;2.95;;
44822;SDS011;51097;51.984;5.650;2023-12-28T04:37:55;6.88;;;2.97;;
44822;SDS011;51097;51.984;5.650;2023-12-28T04:40:21;5.85;;;2.13;;
44822;SDS011;51097;51.984;5.650;2023-12-28T04:42:47;8.80;;;2.40;;
44822;SDS011;51097;51.984;5.650;2023-12-28T04:45:12;9.73;;;2.33;;
44822;SDS011;51097;51.984;5.650;2023-12-28T04:47:38;6.35;;;2.35;;
44822;SDS011;51097;51.984;5.650;2023-12-28T04:50:05;6.28;;;2.63;;
44822;SDS011;51097;51.984;5.650;2023-12-28T04:52:31;11.63;;;2.30;;
44822;SDS011;51097;51.984;5.650;2023-12-28T04:54:57;7.38;;;2.80;;
44822;SDS011;51097;51.984;5.650;2023-12-28T04:57:22;8.98;;;2.70;;
44822;SDS011;51097;51.984;5.650;2023-12-28T04:59:52;6.07;;;2.03;;
44822;SDS011;51097;51.984;5.650;2023-12-28T05:02:18;8.23;;;2.30;;
44822;SDS011;51097;51.984;5.650;2023-12-28T05:04:47;8.35;;;3.13;;
44822;SDS011;51097;51.984;5.650;2023-12-28T05:07:15;11.10;;;2.47;;
44822;SDS011;51097;51.984;5.650;2023-12-28T05:09:41;10.18;;;2.70;;
44822;SDS011;51097;51.984;5.650;2023-12-28T05:12:06;9.90;;;2.63;;
44822;SDS011;51097;51.984;5.650;2023-12-28T05:14:35;9.10;;;2.72;;
44822;SDS011;51097;51.984;5.650;2023-12-28T05:17:01;7.53;;;2.30;;
44822;SDS011;51097;51.984;5.650;2023-12-28T05:19:26;5.88;;;2.00;;
44822;SDS011;51097;51.984;5.650;2023-12-28T05:21:52;9.10;;;2.60;;
44822;SDS011;51097;51.984;5.650;2023-12-28T05:24:20;6.18;;;2.70;;
44822;SDS011;51097;51.984;5.650;2023-12-28T05:26:45;7.85;;;1.95;;
44822;SDS011;51097;51.984;5.650;2023-12-28T05:29:11;13.00;;;2.90;;
44822;SDS011;51097;51.984;5.650;2023-12-28T05:31:36;12.50;;;1.88;;
44822;SDS011;51097;51.984;5.650;2023-12-28T05:34:02;11.10;;;2.83;;
44822;SDS011;51097;51.984;5.650;2023-12-28T05:36:28;8.00;;;2.55;;
44822;SDS011;51097;51.984;5.650;2023-12-28T05:38:56;5.20;;;2.08;;
44822;SDS011;51097;51.984;5.650;2023-12-28T05:41:22;11.77;;;2.28;;
44822;SDS011;51097;51.984;5.650;2023-12-28T05:43:47;9.57;;;3.08;;
44822;SDS011;51097;51.984;5.650;2023-12-28T05:46:13;8.82;;;2.63;;
44822;SDS011;51097;51.984;5.650;2023-12-28T05:48:39;10.07;;;2.70;;
44822;SDS011;51097;51.984;5.650;2023-12-28T05:51:04;4.25;;;2.35;;
44822;SDS011;51097;51.984;5.650;2023-12-28T05:53:30;10.50;;;2.20;;
44822;SDS011;51097;51.984;5.650;2023-12-28T05:55:55;7.80;;;2.45;;
44822;SDS011;51097;51.984;5.650;2023-12-28T05:58:21;8.60;;;2.22;;
44822;SDS011;51097;51.984;5.650;2023-12-28T06:00:46;8.00;;;2.20;;
44822;SDS011;51097;51.984;5.650;2023-12-28T06:03:13;5.82;;;1.80;;
44822;SDS011;51097;51.984;5.650;2023-12-28T06:05:38;8.02;;;1.92;;
44822;SDS011;51097;51.984;5.650;2023-12-28T06:08:04;10.68;;;2.75;;
44822;SDS011;51097;51.984;5.650;2023-12-28T06:10:30;9.85;;;2.25;;
44822;SDS011;51097;51.984;5.650;2023-12-28T06:12:55;5.60;;;2.80;;
44822;SDS011;51097;51.984;5.650;2023-12-28T06:15:21;10.07;;;2.50;;
44822;SDS011;51097;51.984;5.650;2023-12-28T06:17:46;10.55;;;2.33;;
44822;SDS011;51097;51.984;5.650;2023-12-28T06:20:12;10.40;;;3.05;;
44822;SDS011;51097;51.984;5.650;2023-12-28T06:22:37;12.18;;;2.35;;
44822;SDS011;51097;51.984;5.650;2023-12-28T06:25:03;10.88;;;2.45;;
44822;SDS011;51097;51.984;5.650;2023-12-28T06:27:29;11.13;;;2.58;;
44822;SDS011;51097;51.984;5.650;2023-12-28T06:29:55;6.85;;;2.15;;
44822;SDS011;51097;51.984;5.650;2023-12-28T06:32:21;14.52;;;2.80;;
44822;SDS011;51097;51.984;5.650;2023-12-28T06:34:46;11.52;;;2.67;;
44822;SDS011;51097;51.984;5.650;2023-12-28T06:37:13;7.97;;;2.17;;
44822;SDS011;51097;51.984;5.650;2023-12-28T06:39:39;9.15;;;2.55;;
44822;SDS011;51097;51.984;5.650;2023-12-28T06:42:04;11.95;;;2.70;;
44822;SDS011;51097;51.984;5.650;2023-12-28T06:44:30;9.07;;;2.20;;
44822;SDS011;51097;51.984;5.650;2023-12-28T06:46:55;8.63;;;2.45;;
44822;SDS011;51097;51.984;5.650;2023-12-28T06:49:21;12.02;;;2.75;;
44822;SDS011;51097;51.984;5.650;2023-12-28T06:51:47;13.07;;;2.50;;
44822;SDS011;51097;51.984;5.650;2023-12-28T06:54:13;7.30;;;2.50;;
44822;SDS011;51097;51.984;5.650;2023-12-28T06:56:39;14.57;;;3.78;;
44822;SDS011;51097;51.984;5.650;2023-12-28T06:59:05;9.50;;;2.80;;
44822;SDS011;51097;51.984;5.650;2023-12-28T07:01:31;7.70;;;2.35;;
44822;SDS011;51097;51.984;5.650;2023-12-28T07:03:56;9.13;;;2.13;;
44822;SDS011;51097;51.984;5.650;2023-12-28T07:06:24;12.52;;;3.25;;
44822;SDS011;51097;51.984;5.650;2023-12-28T07:08:50;11.27;;;3.22;;
44822;SDS011;51097;51.984;5.650;2023-12-28T07:11:15;13.68;;;2.80;;
44822;SDS011;51097;51.984;5.650;2023-12-28T07:13:44;11.60;;;2.78;;
44822;SDS011;51097;51.984;5.650;2023-12-28T07:16:12;11.82;;;2.92;;
44822;SDS011;51097;51.984;5.650;2023-12-28T07:18:38;10.07;;;2.58;;
44822;SDS011;51097;51.984;5.650;2023-12-28T07:21:06;13.00;;;4.28;;
44822;SDS011;51097;51.984;5.650;2023-12-28T07:23:36;13.45;;;2.97;;
44822;SDS011;51097;51.984;5.650;2023-12-28T07:26:02;12.70;;;2.45;;
44822;SDS011;51097;51.984;5.650;2023-12-28T07:28:28;14.32;;;3.08;;
44822;SDS011;51097;51.984;5.650;2023-12-28T07:30:54;7.07;;;2.33;;
44822;SDS011;51097;51.984;5.650;2023-12-28T07:33:19;11.32;;;3.75;;
44822;SDS011;51097;51.984;5.650;2023-12-28T07:35:45;10.10;;;2.47;;
44822;SDS011;51097;51.984;5.650;2023-12-28T07:38:11;12.02;;;2.67;;
44822;SDS011;51097;51.984;5.650;2023-12-28T07:40:36;17.63;;;3.00;;
44822;SDS011;51097;51.984;5.650;2023-12-28T07:43:02;16.90;;;2.58;;
44822;SDS011;51097;51.984;5.650;2023-12-28T07:45:28;6.38;;;2.00;;
44822;SDS011;51097;51.984;5.650;2023-12-28T07:47:54;10.45;;;2.63;;
44822;SDS011;51097;51.984;5.650;2023-12-28T07:50:19;11.38;;;2.90;;
44822;SDS011;51097;51.984;5.650;2023-12-28T07:52:45;15.20;;;2.90;;
44822;SDS011;51097;51.984;5.650;2023-12-28T07:55:15;10.75;;;3.03;;
44822;SDS011;51097;51.984;5.650;2023-12-28T07:57:41;13.32;;;2.67;;
44822;SDS011;51097;51.984;5.650;2023-12-28T08:00:07;11.05;;;3.35;;
44822;SDS011;51097;51.984;5.650;2023-12-28T08:02:33;8.18;;;2.67;;
44822;SDS011;51097;51.984;5.650;2023-12-28T08:04:58;13.52;;;2.63;;
44822;SDS011;51097;51.984;5.650;2023-12-28T08:07:27;7.03;;;2.08;;
44822;SDS011;51097;51.984;5.650;2023-12-28T08:09:52;16.83;;;3.72;;
44822;SDS011;51097;51.984;5.650;2023-12-28T08:12:18;14.23;;;3.22;;
44822;SDS011;51097;51.984;5.650;2023-12-28T08:14:46;13.00;;;2.72;;
44822;SDS011;51097;51.984;5.650;2023-12-28T08:17:11;11.35;;;2.83;;
44822;SDS011;51097;51.984;5.650;2023-12-28T08:19:37;17.88;;;3.33;;
44822;SDS011;51097;51.984;5.650;2023-12-28T08:22:03;14.25;;;3.05;;
44822;SDS011;51097;51.984;5.650;2023-12-28T08:24:28;9.98;;;3.45;;
44822;SDS011;51097;51.984;5.650;2023-12-28T08:26:54;24.25;;;4.30;;
44822;SDS011;51097;51.984;5.650;2023-12-28T08:29:23;14.00;;;2.72;;
44822;SDS011;51097;51.984;5.650;2023-12-28T08:31:52;14.80;;;2.35;;
44822;SDS011;51097;51.984;5.650;2023-12-28T08:34:18;10.90;;;3.63;;
44822;SDS011;51097;51.984;5.650;2023-12-28T08:36:43;19.98;;;3.20;;
44822;SDS011;51097;51.984;5.650;2023-12-28T08:39:09;9.77;;;2.53;;
44822;SDS011;51097;51.984;5.650;2023-12-28T08:41:34;12.70;;;4.45;;
44822;SDS011;51097;51.984;5.650;2023-12-28T08:44:00;15.52;;;2.78;;
44822;SDS011;51097;51.984;5.650;2023-12-28T08:46:26;8.77;;;2.47;;
44822;SDS011;51097;51.984;5.650;2023-12-28T08:48:51;11.68;;;3.22;;
44822;SDS011;51097;51.984;5.650;2023-12-28T08:51:17;12.57;;;3.13;;
44822;SDS011;51097;51.984;5.650;2023-12-28T08:53:43;13.88;;;3.83;;
44822;SDS011;51097;51.984;5.650;2023-12-28T08:56:19;14.18;;;3.95;;
44822;SDS011;51097;51.984;5.650;2023-12-28T08:58:45;10.57;;;2.85;;
44822;SDS011;51097;51.984;5.650;2023-12-28T09:01:22;17.08;;;3.00;;
44822;SDS011;51097;51.984;5.650;2023-12-28T09:03:49;20.45;;;3.97;;
44822;SDS011;51097;51.984;5.650;2023-12-28T09:06:15;14.88;;;2.58;;
44822;SDS011;51097;51.984;5.650;2023-12-28T09:08:45;18.38;;;3.35;;
44822;SDS011;51097;51.984;5.650;2023-12-28T09:11:12;16.00;;;3.38;;
44822;SDS011;51097;51.984;5.650;2023-12-28T09:13:38;16.70;;;3.70;;
44822;SDS011;51097;51.984;5.650;2023-12-28T09:16:09;20.70;;;3.80;;
44822;SDS011;51097;51.984;5.650;2023-12-28T09:18:39;14.82;;;3.30;;
44822;SDS011;51097;51.984;5.650;2023-12-28T09:21:06;10.32;;;3.03;;
44822;SDS011;51097;51.984;5.650;2023-12-28T09:23:33;12.50;;;2.78;;
44822;SDS011;51097;51.984;5.650;2023-12-28T09:26:00;12.25;;;3.13;;
44822;SDS011;51097;51.984;5.650;2023-12-28T09:28:28;16.15;;;3.22;;
44822;SDS011;51097;51.984;5.650;2023-12-28T09:30:54;15.50;;;3.30;;
44822;SDS011;51097;51.984;5.650;2023-12-28T09:33:19;11.93;;;2.92;;
44822;SDS011;51097;51.984;5.650;2023-12-28T09:35:46;10.63;;;2.58;;
44822;SDS011;51097;51.984;5.650;2023-12-28T09:38:11;13.25;;;3.00;;
44822;SDS011;51097;51.984;5.650;2023-12-28T09:40:37;15.73;;;3.10;;
44822;SDS011;51097;51.984;5.650;2023-12-28T09:45:40;15.95;;;3.10;;
44822;SDS011;51097;51.984;5.650;2023-12-28T09:48:06;12.48;;;2.35;;
44822;SDS011;51097;51.984;5.650;2023-12-28T09:50:32;7.88;;;1.98;;
44822;SDS011;51097;51.984;5.650;2023-12-28T09:52:57;16.30;;;3.03;;
44822;SDS011;51097;51.984;5.650;2023-12-28T09:55:25;18.58;;;3.15;;
44822;SDS011;51097;51.984;5.650;2023-12-28T09:57:53;19.10;;;3.22;;
44822;SDS011;51097;51.984;5.650;2023-12-28T10:00:21;9.57;;;2.85;;
44822;SDS011;51097;51.984;5.650;2023-12-28T10:02:47;10.25;;;3.25;;
44822;SDS011;51097;51.984;5.650;2023-12-28T10:05:16;10.07;;;2.72;;
44822;SDS011;51097;51.984;5.650;2023-12-28T10:07:44;10.60;;;2.72;;
44822;SDS011;51097;51.984;5.650;2023-12-28T10:10:10;11.00;;;2.58;;
44822;SDS011;51097;51.984;5.650;2023-12-28T10:12:37;12.98;;;2.80;;
44822;SDS011;51097;51.984;5.650;2023-12-28T10:15:03;9.52;;;2.60;;
44822;SDS011;51097;51.984;5.650;2023-12-28T10:17:32;12.63;;;2.90;;
44822;SDS011;51097;51.984;5.650;2023-12-28T10:19:58;11.43;;;2.65;;
44822;SDS011;51097;51.984;5.650;2023-12-28T10:22:30;12.82;;;2.70;;
44822;SDS011;51097;51.984;5.650;2023-12-28T10:24:57;10.90;;;2.13;;
44822;SDS011;51097;51.984;5.650;2023-12-28T10:27:24;8.35;;;2.30;;
44822;SDS011;51097;51.984;5.650;2023-12-28T10:29:52;11.80;;;2.60;;
44822;SDS011;51097;51.984;5.650;2023-12-28T10:32:24;12.85;;;2.63;;
44822;SDS011;51097;51.984;5.650;2023-12-28T10:34:53;18.85;;;3.60;;
44822;SDS011;51097;51.984;5.650;2023-12-28T10:37:19;15.73;;;2.83;;
44822;SDS011;51097;51.984;5.650;2023-12-28T10:39:48;9.85;;;2.40;;
44822;SDS011;51097;51.984;5.650;2023-12-28T10:42:18;9.32;;;2.50;;
44822;SDS011;51097;51.984;5.650;2023-12-28T10:44:53;12.93;;;2.80;;
44822;SDS011;51097;51.984;5.650;2023-12-28T10:47:26;13.43;;;2.88;;
44822;SDS011;51097;51.984;5.650;2023-12-28T10:49:53;12.77;;;2.30;;
44822;SDS011;51097;51.984;5.650;2023-12-28T10:52:23;12.75;;;2.15;;
44822;SDS011;51097;51.984;5.650;2023-12-28T10:57:40;11.65;;;2.47;;
44822;SDS011;51097;51.984;5.650;2023-12-28T11:00:25;16.90;;;3.55;;
44822;SDS011;51097;51.984;5.650;2023-12-28T11:02:57;12.98;;;2.40;;
44822;SDS011;51097;51.984;5.650;2023-12-28T11:05:27;10.30;;;2.70;;
44822;SDS011;51097;51.984;5.650;2023-12-28T11:07:55;13.77;;;3.53;;
44822;SDS011;51097;51.984;5.650;2023-12-28T11:10:23;18.48;;;3.50;;
44822;SDS011;51097;51.984;5.650;2023-12-28T11:12:52;11.77;;;2.42;;
44822;SDS011;51097;51.984;5.650;2023-12-28T11:15:19;8.63;;;2.65;;
44822;SDS011;51097;51.984;5.650;2023-12-28T11:17:44;17.50;;;2.75;;
44822;SDS011;51097;51.984;5.650;2023-12-28T11:20:10;20.00;;;3.67;;
44822;SDS011;51097;51.984;5.650;2023-12-28T11:22:37;12.63;;;3.00;;
44822;SDS011;51097;51.984;5.650;2023-12-28T11:25:03;11.93;;;3.28;;
44822;SDS011;51097;51.984;5.650;2023-12-28T11:27:35;12.32;;;3.33;;
44822;SDS011;51097;51.984;5.650;2023-12-28T11:30:04;11.02;;;2.53;;
44822;SDS011;51097;51.984;5.650;2023-12-28T11:32:33;11.52;;;2.95;;
44822;SDS011;51097;51.984;5.650;2023-12-28T11:35:00;15.90;;;2.75;;
44822;SDS011;51097;51.984;5.650;2023-12-28T11:37:26;12.95;;;2.67;;
44822;SDS011;51097;51.984;5.650;2023-12-28T11:39:54;12.80;;;3.15;;
44822;SDS011;51097;51.984;5.650;2023-12-28T11:42:22;11.32;;;3.00;;
44822;SDS011;51097;51.984;5.650;2023-12-28T11:44:48;6.85;;;2.65;;
44822;SDS011;51097;51.984;5.650;2023-12-28T11:47:21;15.88;;;3.05;;
44822;SDS011;51097;51.984;5.650;2023-12-28T11:49:52;16.90;;;3.20;;
44822;SDS011;51097;51.984;5.650;2023-12-28T11:52:26;15.05;;;3.72;;
44822;SDS011;51097;51.984;5.650;2023-12-28T11:54:53;12.15;;;2.60;;
44822;SDS011;51097;51.984;5.650;2023-12-28T11:57:20;17.77;;;2.63;;
44822;SDS011;51097;51.984;5.650;2023-12-28T11:59:47;17.38;;;2.88;;
44822;SDS011;51097;51.984;5.650;2023-12-28T12:02:18;14.13;;;3.00;;
44822;SDS011;51097;51.984;5.650;2023-12-28T12:04:44;14.48;;;2.75;;
44822;SDS011;51097;51.984;5.650;2023-12-28T12:07:09;10.35;;;2.83;;
44822;SDS011;51097;51.984;5.650;2023-12-28T12:09:35;11.95;;;3.00;;
44822;SDS011;51097;51.984;5.650;2023-12-28T12:12:01;17.67;;;3.65;;
44822;SDS011;51097;51.984;5.650;2023-12-28T12:14:27;16.17;;;3.55;;
44822;SDS011;51097;51.984;5.650;2023-12-28T12:16:54;14.93;;;3.00;;
44822;SDS011;51097;51.984;5.650;2023-12-28T12:19:26;11.95;;;3.00;;
44822;SDS011;51097;51.984;5.650;2023-12-28T12:21:53;16.48;;;3.90;;
44822;SDS011;51097;51.984;5.650;2023-12-28T12:24:19;15.50;;;3.03;;
44822;SDS011;51097;51.984;5.650;2023-12-28T12:26:45;12.68;;;2.90;;
44822;SDS011;51097;51.984;5.650;2023-12-28T12:29:11;12.27;;;3.20;;
44822;SDS011;51097;51.984;5.650;2023-12-28T12:31:37;14.07;;;3.28;;
44822;SDS011;51097;51.984;5.650;2023-12-28T12:34:05;14.60;;;3.00;;
44822;SDS011;51097;51.984;5.650;2023-12-28T12:36:31;11.50;;;3.40;;
44822;SDS011;51097;51.984;5.650;2023-12-28T12:38:56;14.30;;;3.15;;
44822;SDS011;51097;51.984;5.650;2023-12-28T12:41:22;14.68;;;3.72;;
44822;SDS011;51097;51.984;5.650;2023-12-28T12:43:48;12.77;;;2.72;;
44822;SDS011;51097;51.984;5.650;2023-12-28T12:46:13;14.82;;;2.58;;
44822;SDS011;51097;51.984;5.650;2023-12-28T12:48:39;12.05;;;3.08;;
44822;SDS011;51097;51.984;5.650;2023-12-28T12:51:05;11.57;;;3.25;;
44822;SDS011;51097;51.984;5.650;2023-12-28T12:53:35;13.85;;;3.30;;
44822;SDS011;51097;51.984;5.650;2023-12-28T12:58:31;16.13;;;2.72;;
44822;SDS011;51097;51.984;5.650;2023-12-28T13:00:56;13.25;;;2.83;;
44822;SDS011;51097;51.984;5.650;2023-12-28T13:03:22;16.10;;;3.25;;
44822;SDS011;51097;51.984;5.650;2023-12-28T13:05:53;17.08;;;2.67;;
44822;SDS011;51097;51.984;5.650;2023-12-28T13:08:21;12.07;;;3.10;;
44822;SDS011;51097;51.984;5.650;2023-12-28T13:10:47;11.38;;;2.78;;
44822;SDS011;51097;51.984;5.650;2023-12-28T13:13:12;12.88;;;2.13;;
44822;SDS011;51097;51.984;5.650;2023-12-28T13:15:38;16.70;;;2.80;;
44822;SDS011;51097;51.984;5.650;2023-12-28T13:18:04;17.65;;;3.70;;
44822;SDS011;51097;51.984;5.650;2023-12-28T13:20:30;14.65;;;3.35;;
44822;SDS011;51097;51.984;5.650;2023-12-28T13:22:55;13.20;;;2.83;;
44822;SDS011;51097;51.984;5.650;2023-12-28T13:25:22;15.45;;;3.47;;
44822;SDS011;51097;51.984;5.650;2023-12-28T13:27:47;9.05;;;2.58;;
44822;SDS011;51097;51.984;5.650;2023-12-28T13:30:14;11.82;;;2.50;;
44822;SDS011;51097;51.984;5.650;2023-12-28T13:32:39;10.88;;;2.70;;
44822;SDS011;51097;51.984;5.650;2023-12-28T13:35:05;18.83;;;3.92;;
44822;SDS011;51097;51.984;5.650;2023-12-28T13:37:31;11.70;;;2.75;;
44822;SDS011;51097;51.984;5.650;2023-12-28T13:39:57;12.82;;;2.40;;
44822;SDS011;51097;51.984;5.650;2023-12-28T13:42:22;11.05;;;2.78;;
44822;SDS011;51097;51.984;5.650;2023-12-28T13:44:49;17.63;;;4.97;;
44822;SDS011;51097;51.984;5.650;2023-12-28T13:47:15;21.55;;;3.42;;
44822;SDS011;51097;51.984;5.650;2023-12-28T13:49:40;10.60;;;2.78;;
44822;SDS011;51097;51.984;5.650;2023-12-28T13:52:06;14.77;;;3.40;;
44822;SDS011;51097;51.984;5.650;2023-12-28T13:54:31;15.35;;;3.63;;
44822;SDS011;51097;51.984;5.650;2023-12-28T13:56:57;19.42;;;3.70;;
44822;SDS011;51097;51.984;5.650;2023-12-28T13:59:24;11.55;;;4.22;;
44822;SDS011;51097;51.984;5.650;2023-12-28T14:01:50;15.05;;;2.97;;
44822;SDS011;51097;51.984;5.650;2023-12-28T14:04:15;12.50;;;3.15;;
44822;SDS011;51097;51.984;5.650;2023-12-28T14:06:44;14.63;;;3.28;;
44822;SDS011;51097;51.984;5.650;2023-12-28T14:09:09;14.57;;;2.90;;
44822;SDS011;51097;51.984;5.650;2023-12-28T14:11:40;12.82;;;3.28;;
44822;SDS011;51097;51.984;5.650;2023-12-28T14:14:05;15.75;;;3.08;;
44822;SDS011;51097;51.984;5.650;2023-12-28T14:16:31;12.02;;;3.67;;
44822;SDS011;51097;51.984;5.650;2023-12-28T14:18:56;15.15;;;3.47;;
44822;SDS011;51097;51.984;5.650;2023-12-28T14:21:22;13.90;;;3.15;;
44822;SDS011;51097;51.984;5.650;2023-12-28T14:23:51;13.07;;;3.55;;
44822;SDS011;51097;51.984;5.650;2023-12-28T14:26:17;15.05;;;3.20;;
44822;SDS011;51097;51.984;5.650;2023-12-28T14:28:46;16.85;;;3.13;;
44822;SDS011;51097;51.984;5.650;2023-12-28T14:31:12;14.07;;;3.35;;
44822;SDS011;51097;51.984;5.650;2023-12-28T14:33:41;19.50;;;3.47;;
44822;SDS011;51097;51.984;5.650;2023-12-28T14:38:58;12.82;;;3.40;;
44822;SDS011;51097;51.984;5.650;2023-12-28T14:41:25;17.50;;;3.47;;
44822;SDS011;51097;51.984;5.650;2023-12-28T14:43:50;14.75;;;3.47;;
44822;SDS011;51097;51.984;5.650;2023-12-28T14:46:16;13.77;;;4.00;;
44822;SDS011;51097;51.984;5.650;2023-12-28T14:48:41;14.10;;;3.30;;
44822;SDS011;51097;51.984;5.650;2023-12-28T14:51:07;8.82;;;3.30;;
44822;SDS011;51097;51.984;5.650;2023-12-28T14:53:33;18.90;;;3.58;;
44822;SDS011;51097;51.984;5.650;2023-12-28T14:55:58;21.98;;;3.85;;
44822;SDS011;51097;51.984;5.650;2023-12-28T14:58:25;12.15;;;2.75;;